Архив погоды в Белогорске

Метеограмма Белогорск
Пятница, 22 Июня
Время местн. Темп Ветер Видим Явления Облачность нижн/средн/верх Атм. давл. Влжн Точка росы ВНГО R Сост. почвы Tg s
Напр Скр Прв ур.ст ур.м изм
09:00 +20.1° Ю,Ю-З 1 - 20 км небо без изменений {гроза} переменная облачность 731 746 -0.4 70% +14.4° более 2.5 км 1 Влажная (без луж) +14° -
06:00 +16.2° Ю 1 - 20 км небо без изменений {гроза, ливневые осадки} переменная облачность 731 747 -0.4 85% +13.7° более 2.5 км - - - -
03:00 +15.3° Ю,Ю-З 3 - 10 км слабая или умеренная гроза с осадками облачно 732 747 -0.8 91% +13.8° 1 км - - - -
00:00 +17.6° Ю 1 - 20 км - ясно 733 748 -0.5 78% +13.7° более 2.5 км - - - -
Четверг, 21 Июня
Время местн. Темп Ветер Видим Явления Облачность нижн/средн/верх Атм. давл. Влжн Точка росы ВНГО R Сост. почвы Tg s
Напр Скр Прв ур.ст ур.м изм
21:00 +19.5° Ю 1 - 20 км - облачно с прояснениями 733 748 +0.1 71% +14.1° 1 км 0 - - -
18:00 +22.8° З,С-З 1 - 10 км - облачно с прояснениями 733 748 -0.6 55% +13.4° 1 км - - - -
15:00 +24.8° С,С-В 2 - 10 км - переменная облачность 734 749 -0.9 39% +9.8° 1 км - - - -
12:00 +22.7° С,С-В 2 - 10 км - переменная облачность 734 750 -0.8 47% +10.8° 1 км - - - -
09:00 +19.4° С,С-В 2 - 10 км - переменная облачность 735 751 +0.1 56% +10.4° более 2.5 км 0 Сухая (без трещин) +8° -
06:00 +10.8° С-З 1 - 10 км - облачно с прояснениями 735 751 +0.2 95% +10° более 2.5 км - - - -
03:00 +10° З,С-З 1 - 10 км - ясно 735 751 -0.2 94% +9.1° более 2.5 км - - - -
00:00 +11.8° штиль 0 - 10 км - ясно 735 751 -0.2 89% +10° более 2.5 км - - - -
Среда, 20 Июня
Время местн. Темп Ветер Видим Явления Облачность нижн/средн/верх Атм. давл. Влжн Точка росы ВНГО R Сост. почвы Tg s
Напр Скр Прв ур.ст ур.м изм
21:00 +15.3° З,С-З 1 - 10 км - переменная облачность 735 751 +0.5 73% +10.5° более 2.5 км 0 - - -
18:00 +19.1° В,С-В 2 - 10 км - переменная облачность 735 750 -0.2 56% +10.1° более 2.5 км - - - -
15:00 +19.7° С,С-В 1 - 10 км - облачно с прояснениями 735 750 -1 54% +10° 1 км - - - -
12:00 +17.8° С 3 - 10 км - преимущественно облачно 736 752 -0.3 56% +9° 1.5 км - - - -
09:00 +14.7° С 3 - 10 км - незначительная облачность 736 752 -0.2 62% +7.4° 1.5 км 0 Влажная (без луж) - -
06:00 +9.9° С 1 - 10 км - переменная облачность 737 753 +0.3 79% +6.4° более 2.5 км - - - -
03:00 +9.9° В,С-В 1 - 10 км - облачно с прояснениями 736 752 +0.1 73% +5.3° 1 км - - - -
00:00 +10.4° С-В 2 - 10 км - переменная облачность 736 752 +0.7 82% +7.5° более 2.5 км - - - -
Вторник, 19 Июня
Время местн. Темп Ветер Видим Явления Облачность нижн/средн/верх Атм. давл. Влжн Точка росы ВНГО R Сост. почвы Tg s
Напр Скр Прв ур.ст ур.м изм
21:00 +13.5° В 1 - 10 км - переменная облачность 736 751 +0.7 76% +9.3° - 0 - - -
18:00 +16.1° С,С-В 2 - 10 км - облачно 735 750 +1.2 67% +10° 1 км - - - -
15:00 +16.5° С 3 - 10 км - облачно с прояснениями 734 749 +0.4 65% +9.8° 1.5 км - - - -
12:00 +16° С 2 - 10 км - облачно 733 749 +0.6 67% +9.9° 1 км - - - -
09:00 +11.1° С 3 - 10 км - облачно 733 748 +0.2 77% +7.3° 1 км 1 Влажная (без луж) +12° -
06:00 +10.2° С 3 - более 50 км - облачно 732 748 +0.1 83% +7.4° 1 км - - - -